Time,TemperatureF,DewpointF,PressureIn,WindDirection,WindDirectionDegrees,WindSpeedMPH,WindSpeedGustMPH,Humidity,HourlyPrecipIn,Conditions,Clouds,dailyrainin,SoftwareType,DateUTC
2013-05-01 00:01:00,70.1,20.3,29.78,South,189,6.8,11.0,15,0.00,CLR,SCT,0.00,WeatherDisplay:10.37,2013-05-01 07:01:00,
2013-05-01 00:06:00,69.9,18.5,29.78,SSW,204,8.4,16.1,14,0.00,CLR,SCT,0.00,WeatherDisplay:10.37,2013-05-01 07:06:00,
2013-05-01 00:11:00,69.8,20.0,29.79,ESE,123,9.4,15.0,15,0.00,CLR,SCT,0.00,WeatherDisplay:10.37,2013-05-01 07:11:00,
2013-05-01 00:16:00,69.6,19.9,29.79,WNW,300,9.6,12.0,15,0.00,CLR,SCT,0.00,WeatherDisplay:10.37,2013-05-01 07:16:00,
2013-05-01 00:21:00,69.6,18.2,29.79,SE,133,6.1,7.0,14,0.00,CLR,SCT,0.00,WeatherDisplay:10.37,2013-05-01 07:21:00,
2013-05-01 00:26:00,69.3,21.1,29.78,NNE,30,7.3,10.4,16,0.00,CLR,SCT,0.00,WeatherDisplay:10.37,2013-05-01 07:26:00,
2013-05-01 00:31:00,68.4,21.8,29.78,ESE,123,3.0,7.0,17,0.00,CLR,SCT,0.00,WeatherDisplay:10.37,2013-05-01 07:31:00,
2013-05-01 00:36:00,68.1,17.0,29.78,SE,125,3.1,7.0,14,0.00,CLR,SCT,0.00,WeatherDisplay:10.37,2013-05-01 07:36:00,
2013-05-01 00:41:00,68.1,18.7,29.78,SE,138,4.9,6.0,15,0.00,CLR,SCT,0.00,WeatherDisplay:10.37,2013-05-01 07:41:00,
2013-05-01 00:46:00,67.8,19.9,29.78,South,171,6.9,11.5,16,0.00,CLR,SCT,0.00,WeatherDisplay:10.37,2013-05-01 07:46:00,
2013-05-01 00:51:00,66.9,20.6,29.79,WNW,302,8.0,11.5,17,0.00,CLR,SCT,0.00,WeatherDisplay:10.37,2013-05-01 07:51:00,
2013-05-01 00:56:00,66.1,20.0,29.79,North,353,4.6,9.2,17,0.00,CLR,SCT,0.00,WeatherDisplay:10.37,2013-05-01 07:56:00,
2013-05-01 01:01:00,66.0,21.2,29.79,North,351,2.1,3.5,18,0.00,CLR,SCT,0.00,WeatherDisplay:10.37,2013-05-01 08:01:00,
2013-05-01 01:06:00,65.2,20.6,29.79,NE,40,6.7,9.2,18,0.00,CLR,SCT,0.00,WeatherDisplay:10.37,2013-05-01 08:06:00,
2013-05-01 01:11:00,65.3,19.3,29.79,East,88,2.8,7.0,17,0.00,CLR,SCT,0.00,WeatherDisplay:10.37,2013-05-01 08:11:00,
2013-05-01 01:16:00,66.0,18.5,29.79,East,89,1.9,4.6,16,0.00,CLR,SCT,0.00,WeatherDisplay:10.37,2013-05-01 08:16:00,
2013-05-01 01:21:00,66.3,18.7,29.79,East,88,1.8,4.6,16,0.00,CLR,SCT,0.00,WeatherDisplay:10.37,2013-05-01 08:21:00,
2013-05-01 01:26:00,66.3,18.7,29.79,ESE,112,2.2,3.5,16,0.00,CLR,SCT,0.00,WeatherDisplay:10.37,2013-05-01 08:26:00,
2013-05-01 01:31:00,66.3,20.1,29.79,SSE,161,11.3,16.1,17,0.00,CLR,SCT,0.00,WeatherDisplay:10.37,2013-05-01 08:31:00,
2013-05-01 01:36:00,66.9,20.6,29.78,SSE,150,7.3,11.5,17,0.00,CLR,SCT,0.00,WeatherDisplay:10.37,2013-05-01 08:36:00,
2013-05-01 01:41:00,67.3,20.9,29.79,SE,136,5.4,10.4,17,0.00,CLR,SCT,0.00,WeatherDisplay:10.37,2013-05-01 08:41:00,
2013-05-01 01:46:00,67.4,21.0,29.79,SSE,154,10.5,13.8,17,0.00,CLR,SCT,0.00,WeatherDisplay:10.37,2013-05-01 08:46:00,
2013-05-01 01:51:00,67.8,21.4,29.78,ESE,113,7.0,9.2,17,0.00,CLR,SCT,0.00,WeatherDisplay:10.37,2013-05-01 08:51:00,
2013-05-01 01:56:00,67.9,20.0,29.79,SSE,149,8.8,13.8,16,0.00,CLR,SCT,0.00,WeatherDisplay:10.37,2013-05-01 08:56:00,
2013-05-01 02:01:00,68.1,20.2,29.78,SE,136,8.4,11.5,16,0.00,CLR,SCT,0.00,WeatherDisplay:10.37,2013-05-01 09:01:00,
2013-05-01 02:06:00,67.9,20.0,29.78,South,175,12.2,18.4,16,0.00,CLR,SCT,0.00,WeatherDisplay:10.37,2013-05-01 09:06:00,
2013-05-01 02:11:00,67.8,18.4,29.79,SSE,157,9.6,15.0,15,0.00,CLR,SCT,0.00,WeatherDisplay:10.37,2013-05-01 09:11:00,
2013-05-01 02:16:00,67.8,19.9,29.79,SSE,152,5.9,10.4,16,0.00,CLR,SCT,0.00,WeatherDisplay:10.37,2013-05-01 09:16:00,
2013-05-01 02:21:00,67.6,19.8,29.79,South,181,6.7,10.4,16,0.00,CLR,SCT,0.00,WeatherDisplay:10.37,2013-05-01 09:21:00,
2013-05-01 02:26:00,66.8,20.5,29.79,South,181,3.0,5.8,17,0.00,CLR,SCT,0.00,WeatherDisplay:10.37,2013-05-01 09:26:00,
2013-05-01 02:31:00,66.1,20.0,29.80,South,181,7.3,8.1,17,0.00,CLR,SCT,0.00,WeatherDisplay:10.37,2013-05-01 09:31:00,
2013-05-01 02:36:00,65.8,19.7,29.80,SSE,168,0.3,1.2,17,0.00,CLR,SCT,0.00,WeatherDisplay:10.37,2013-05-01 09:36:00,
2013-05-01 02:41:00,65.3,20.7,29.80,SSE,168,1.3,3.5,18,0.00,CLR,SCT,0.00,WeatherDisplay:10.37,2013-05-01 09:41:00,
2013-05-01 02:46:00,64.8,20.2,29.80,NNW,348,6.0,9.2,18,0.00,CLR,SCT,0.00,WeatherDisplay:10.37,2013-05-01 09:46:00,
2013-05-01 02:51:00,64.5,20.0,29.81,ESE,104,0.6,2.3,18,0.00,CLR,SCT,0.00,WeatherDisplay:10.37,2013-05-01 09:51:00,
2013-05-01 02:56:00,64.3,17.1,29.80,SE,141,6.1,10.4,16,0.00,CLR,SCT,0.00,WeatherDisplay:10.37,2013-05-01 09:56:00,
2013-05-01 03:01:00,64.7,15.9,29.81,SE,139,4.7,10.4,15,0.00,CLR,SCT,0.00,WeatherDisplay:10.37,2013-05-01 10:01:00,
2013-05-01 03:06:00,65.2,16.3,29.81,South,173,1.6,6.9,15,0.00,CLR,SCT,0.00,WeatherDisplay:10.37,2013-05-01 10:06:00,
2013-05-01 03:11:00,65.8,16.8,29.81,SSE,157,7.0,9.2,15,0.00,CLR,SCT,0.00,WeatherDisplay:10.37,2013-05-01 10:11:00,
2013-05-01 03:16:00,65.6,18.1,29.81,SSE,161,0.4,2.3,16,0.00,CLR,SCT,0.00,WeatherDisplay:10.37,2013-05-01 10:16:00,
2013-05-01 03:21:00,65.3,19.3,29.81,SSE,158,2.0,3.5,17,0.00,CLR,SCT,0.00,WeatherDisplay:10.37,2013-05-01 10:21:00,
2013-05-01 03:26:00,64.7,18.8,29.81,ESE,104,0.5,1.2,17,0.00,CLR,SCT,0.00,WeatherDisplay:10.37,2013-05-01 10:26:00,
2013-05-01 03:31:00,63.9,19.5,29.81,NNE,26,0.9,2.3,18,0.00,CLR,SCT,0.00,WeatherDisplay:10.37,2013-05-01 10:31:00,
2013-05-01 03:36:00,62.9,20.0,29.81,West,281,2.7,5.8,19,0.00,CLR,SCT,0.00,WeatherDisplay:10.37,2013-05-01 10:36:00,
2013-05-01 03:41:00,62.3,19.5,29.81,SSW,198,0.0,0.0,19,0.00,CLR,SCT,0.00,WeatherDisplay:10.37,2013-05-01 10:41:00,
2013-05-01 03:46:00,62.0,20.4,29.81,SSW,198,4.3,4.6,20,0.00,CLR,SCT,0.00,WeatherDisplay:10.37,2013-05-01 10:46:00,
2013-05-01 03:51:00,61.3,19.8,29.82,SSW,198,4.1,4.6,20,0.00,CLR,SCT,0.00,WeatherDisplay:10.37,2013-05-01 10:51:00,
2013-05-01 03:56:00,60.9,20.7,29.82,SSW,198,5.2,6.9,21,0.00,CLR,SCT,0.00,WeatherDisplay:10.37,2013-05-01 10:56:00,
2013-05-01 04:01:00,60.5,20.3,29.81,SSW,198,3.1,4.6,21,0.00,CLR,SCT,0.00,WeatherDisplay:10.37,2013-05-01 11:01:00,
2013-05-01 04:06:00,60.4,20.2,29.82,SSW,198,2.9,3.5,21,0.00,CLR,SCT,0.00,WeatherDisplay:10.37,2013-05-01 11:06:00,
2013-05-01 04:11:00,60.2,20.1,29.81,SSW,198,4.4,6.9,21,0.00,CLR,SCT,0.00,WeatherDisplay:10.37,2013-05-01 11:11:00,
2013-05-01 04:16:00,60.1,20.0,29.82,SSW,198,4.1,5.0,21,0.00,CLR,SCT,0.00,WeatherDisplay:10.37,2013-05-01 11:16:00,
2013-05-01 04:21:00,60.2,17.7,29.82,SSW,198,3.6,4.6,19,0.00,CLR,SCT,0.00,WeatherDisplay:10.37,2013-05-01 11:21:00,
2013-05-01 04:26:00,60.7,20.5,29.82,SSW,199,3.7,4.6,21,0.00,CLR,SCT,0.00,WeatherDisplay:10.37,2013-05-01 11:26:00,
2013-05-01 04:31:00,60.9,20.7,29.82,SSW,198,1.9,3.5,21,0.00,CLR,SCT,0.00,WeatherDisplay:10.37,2013-05-01 11:31:00,
2013-05-01 04:36:00,60.5,20.3,29.82,ESE,117,1.5,3.5,21,0.00,CLR,SCT,0.00,WeatherDisplay:10.37,2013-05-01 11:36:00,
2013-05-01 04:41:00,60.2,21.2,29.82,ESE,117,0.9,2.3,22,0.00,CLR,SCT,0.00,WeatherDisplay:10.37,2013-05-01 11:41:00,
2013-05-01 04:46:00,60.1,21.1,29.82,ENE,71,3.1,6.9,22,0.00,CLR,SCT,0.00,WeatherDisplay:10.37,2013-05-01 11:46:00,
2013-05-01 04:51:00,59.9,19.8,29.83,ENE,70,2.7,3.5,21,0.00,CLR,SCT,0.00,WeatherDisplay:10.37,2013-05-01 11:51:00,
2013-05-01 04:56:00,59.9,19.8,29.82,ENE,70,2.3,3.5,21,0.00,CLR,SCT,0.00,WeatherDisplay:10.37,2013-05-01 11:56:00,
2013-05-01 05:01:00,59.8,20.8,29.83,WNW,290,4.0,5.8,22,0.00,CLR,SCT,0.00,WeatherDisplay:10.37,2013-05-01 12:01:00,
2013-05-01 05:06:00,59.3,20.4,29.83,WNW,286,2.7,3.5,22,0.00,CLR,SCT,0.00,WeatherDisplay:10.37,2013-05-01 12:06:00,
2013-05-01 05:11:00,58.9,21.1,29.83,West,272,2.2,3.5,23,0.00,CLR,SCT,0.00,WeatherDisplay:10.37,2013-05-01 12:11:00,
2013-05-01 05:16:00,58.4,20.7,29.84,SW,223,1.1,3.0,23,0.00,CLR,SCT,0.00,WeatherDisplay:10.37,2013-05-01 12:16:00,
2013-05-01 05:21:00,58.0,20.4,29.84,SW,220,3.3,4.0,23,0.00,CLR,SCT,0.00,WeatherDisplay:10.37,2013-05-01 12:21:00,
2013-05-01 05:26:00,57.5,19.9,29.84,SW,221,2.4,4.6,23,0.00,CLR,SCT,0.00,WeatherDisplay:10.37,2013-05-01 12:26:00,
2013-05-01 05:31:00,57.3,19.8,29.84,SW,221,4.2,5.0,23,0.00,CLR,SCT,0.00,WeatherDisplay:10.37,2013-05-01 12:31:00,
2013-05-01 05:36:00,57.2,19.7,29.85,SSW,202,4.3,5.8,23,0.00,CLR,SCT,0.00,WeatherDisplay:10.37,2013-05-01 12:36:00,
2013-05-01 05:41:00,57.3,19.8,29.85,SSW,202,2.9,4.6,23,0.00,CLR,SCT,0.00,WeatherDisplay:10.37,2013-05-01 12:41:00,
2013-05-01 05:46:00,57.6,19.0,29.85,SSW,202,0.0,0.0,22,0.00,CLR,SCT,0.00,WeatherDisplay:10.37,2013-05-01 12:46:00,
2013-05-01 05:51:00,58.0,20.4,29.85,SSW,202,0.0,0.0,23,0.00,CLR,SCT,0.00,WeatherDisplay:10.37,2013-05-01 12:51:00,
2013-05-01 05:56:00,58.1,20.4,29.86,SSW,202,0.0,1.2,23,0.00,CLR,SCT,0.00,WeatherDisplay:10.37,2013-05-01 12:56:00,
2013-05-01 06:01:00,58.1,19.4,29.86,SSW,206,0.0,0.0,22,0.00,CLR,SCT,0.00,WeatherDisplay:10.37,2013-05-01 13:01:00,
2013-05-01 06:06:00,58.1,19.4,29.86,SSW,206,0.0,0.0,22,0.00,CLR,SCT,0.00,WeatherDisplay:10.37,2013-05-01 13:06:00,
2013-05-01 06:11:00,58.3,19.6,29.86,SSW,206,0.0,0.0,22,0.00,CLR,SCT,0.00,WeatherDisplay:10.37,2013-05-01 13:11:00,
2013-05-01 06:16:00,58.1,21.4,29.87,SSW,206,1.3,3.5,24,0.00,CLR,SCT,0.00,WeatherDisplay:10.37,2013-05-01 13:16:00,
2013-05-01 06:21:00,58.1,21.4,29.87,SSW,206,0.9,1.2,24,0.00,CLR,SCT,0.00,WeatherDisplay:10.37,2013-05-01 13:21:00,
2013-05-01 06:27:00,58.3,21.6,29.87,SSW,192,1.7,3.5,24,0.00,CLR,SCT,0.00,WeatherDisplay:10.37,2013-05-01 13:27:00,
2013-05-01 06:32:00,58.4,21.7,29.88,ENE,77,4.3,4.6,24,0.00,CLR,SCT,0.00,WeatherDisplay:10.37,2013-05-01 13:32:00,
2013-05-01 06:37:00,58.6,21.9,29.87,ENE,73,0.0,0.0,24,0.00,CLR,SCT,0.00,WeatherDisplay:10.37,2013-05-01 13:37:00,
2013-05-01 06:42:00,58.7,22.0,29.88,ENE,73,0.0,0.0,24,0.00,CLR,SCT,0.00,WeatherDisplay:10.37,2013-05-01 13:42:00,
2013-05-01 06:47:00,59.0,22.2,29.88,NE,38,4.0,4.6,24,0.00,CLR,SCT,0.00,WeatherDisplay:10.37,2013-05-01 13:47:00,
2013-05-01 06:52:00,59.3,21.5,29.89,NE,35,0.0,0.0,23,0.00,CLR,SCT,0.00,WeatherDisplay:10.37,2013-05-01 13:52:00,
2013-05-01 06:57:00,59.6,22.7,29.88,NE,35,0.1,1.2,24,0.00,CLR,SCT,0.00,WeatherDisplay:10.37,2013-05-01 13:57:00,
2013-05-01 07:02:00,60.1,21.1,29.89,East,94,2.0,3.5,22,0.00,CLR,SCT,0.00,WeatherDisplay:10.37,2013-05-01 14:02:00,
2013-05-01 07:07:00,60.9,21.8,29.89,ENE,73,2.3,3.5,22,0.00,CLR,SCT,0.00,WeatherDisplay:10.37,2013-05-01 14:07:00,
2013-05-01 07:12:00,61.8,22.5,29.89,ENE,72,1.9,3.5,22,0.00,CLR,SCT,0.00,WeatherDisplay:10.37,2013-05-01 14:12:00,
2013-05-01 07:17:00,62.3,21.8,29.89,ENE,72,2.2,3.5,21,0.00,CLR,SCT,0.00,WeatherDisplay:10.37,2013-05-01 14:17:00,
2013-05-01 07:22:00,62.9,22.3,29.89,ENE,71,0.0,0.0,21,0.00,CLR,SCT,0.00,WeatherDisplay:10.37,2013-05-01 14:22:00,
2013-05-01 07:27:00,63.4,20.4,29.89,NE,53,3.2,5.8,19,0.00,CLR,SCT,0.00,WeatherDisplay:10.37,2013-05-01 14:27:00,
2013-05-01 07:32:00,64.0,20.9,29.89,NE,48,0.7,3.5,19,0.00,CLR,SCT,0.00,WeatherDisplay:10.37,2013-05-01 14:32:00,
2013-05-01 07:37:00,64.7,21.4,29.89,NE,48,1.3,3.5,19,0.00,CLR,SCT,0.00,WeatherDisplay:10.37,2013-05-01 14:37:00,
2013-05-01 07:42:00,65.2,20.6,29.90,NNE,25,2.4,3.5,18,0.00,CLR,SCT,0.00,WeatherDisplay:10.37,2013-05-01 14:42:00,
2013-05-01 07:47:00,65.5,19.5,29.90,North,2,2.4,3.5,17,0.00,CLR,SCT,0.00,WeatherDisplay:10.37,2013-05-01 14:47:00,
2013-05-01 07:52:00,65.6,19.6,29.90,North,2,2.6,3.5,17,0.00,CLR,SCT,0.00,WeatherDisplay:10.37,2013-05-01 14:52:00,
2013-05-01 07:57:00,66.0,19.9,29.90,North,2,4.7,5.8,17,0.00,CLR,SCT,0.00,WeatherDisplay:10.37,2013-05-01 14:57:00,
2013-05-01 08:02:00,66.1,20.0,29.90,North,2,3.9,4.6,17,0.00,CLR,SCT,0.00,WeatherDisplay:10.37,2013-05-01 15:02:00,
2013-05-01 08:07:00,66.4,18.8,29.90,North,2,3.8,6.9,16,0.00,CLR,SCT,0.00,WeatherDisplay:10.37,2013-05-01 15:07:00,
2013-05-01 08:12:00,66.8,20.5,29.90,North,2,4.0,5.0,17,0.00,CLR,SCT,0.00,WeatherDisplay:10.37,2013-05-01 15:12:00,
2013-05-01 08:17:00,67.3,19.5,29.90,North,2,4.6,5.0,16,0.00,CLR,SCT,0.00,WeatherDisplay:10.37,2013-05-01 15:17:00,
2013-05-01 08:22:00,67.6,19.8,29.90,NNE,24,5.4,8.1,16,0.00,CLR,SCT,0.00,WeatherDisplay:10.37,2013-05-01 15:22:00,
2013-05-01 08:27:00,68.1,18.7,29.90,North,2,5.8,5.8,15,0.00,CLR,SCT,0.00,WeatherDisplay:10.37,2013-05-01 15:27:00,
2013-05-01 08:32:00,68.4,18.9,29.90,NNE,18,4.1,5.8,15,0.00,CLR,SCT,0.00,WeatherDisplay:10.37,2013-05-01 15:32:00,
2013-05-01 08:37:00,68.6,19.1,29.90,NNW,333,2.9,5.8,15,0.00,CLR,SCT,0.00,WeatherDisplay:10.37,2013-05-01 15:37:00,
2013-05-01 08:42:00,69.1,17.8,29.90,North,2,5.2,9.2,14,0.00,CLR,SCT,0.00,WeatherDisplay:10.37,2013-05-01 15:42:00,
2013-05-01 08:47:00,69.4,18.1,29.90,NNW,342,3.9,4.6,14,0.00,CLR,SCT,0.00,WeatherDisplay:10.37,2013-05-01 15:47:00,
2013-05-01 08:52:00,69.9,18.5,29.90,NNW,328,2.9,4.6,14,0.00,CLR,SCT,0.00,WeatherDisplay:10.37,2013-05-01 15:52:00,
2013-05-01 08:57:00,70.3,17.1,29.90,North,353,1.7,4.6,13,0.00,CLR,SCT,0.00,WeatherDisplay:10.37,2013-05-01 15:57:00,
2013-05-01 09:02:00,70.4,18.9,29.90,NNW,333,2.9,5.8,14,0.00,CLR,SCT,0.00,WeatherDisplay:10.37,2013-05-01 16:02:00,
2013-05-01 09:07:00,70.8,17.5,29.90,North,2,5.9,10.4,13,0.00,CLR,SCT,0.00,WeatherDisplay:10.37,2013-05-01 16:07:00,
2013-05-01 09:12:00,70.9,17.5,29.91,North,2,2.9,7.0,13,0.00,CLR,SCT,0.00,WeatherDisplay:10.37,2013-05-01 16:12:00,
2013-05-01 09:17:00,70.9,17.5,29.91,NNW,348,6.4,8.1,13,0.00,CLR,SCT,0.00,WeatherDisplay:10.37,2013-05-01 16:17:00,
2013-05-01 09:22:00,71.3,16.0,29.91,NNW,348,1.1,3.0,12,0.00,CLR,SCT,0.00,WeatherDisplay:10.37,2013-05-01 16:22:00,
2013-05-01 09:27:00,72.1,16.6,29.91,WNW,286,3.2,3.5,12,0.00,CLR,SCT,0.00,WeatherDisplay:10.37,2013-05-01 16:27:00,
2013-05-01 09:32:00,72.7,17.1,29.90,NNW,345,3.2,4.0,12,0.00,CLR,SCT,0.00,WeatherDisplay:10.37,2013-05-01 16:32:00,
2013-05-01 09:37:00,72.7,17.1,29.91,North,2,3.1,5.0,12,0.00,CLR,SCT,0.00,WeatherDisplay:10.37,2013-05-01 16:37:00,
2013-05-01 09:42:00,72.7,17.1,29.91,North,2,0.0,3.5,12,0.00,CLR,SCT,0.00,WeatherDisplay:10.37,2013-05-01 16:42:00,
2013-05-01 09:47:00,72.8,15.2,29.91,NNE,24,0.7,2.3,11,0.00,CLR,SCT,0.00,WeatherDisplay:10.37,2013-05-01 16:47:00,
2013-05-01 09:52:00,73.5,15.7,29.91,NNE,25,0.0,0.0,11,0.00,CLR,SCT,0.00,WeatherDisplay:10.37,2013-05-01 16:52:00,
2013-05-01 09:57:00,73.9,16.0,29.91,NNE,19,5.6,9.2,11,0.00,CLR,SCT,0.00,WeatherDisplay:10.37,2013-05-01 16:57:00,
2013-05-01 10:02:00,74.0,16.1,29.91,NNE,33,2.8,3.5,11,0.00,CLR,SCT,0.00,WeatherDisplay:10.37,2013-05-01 17:02:00,
2013-05-01 10:07:00,74.7,16.6,29.91,NE,48,3.6,4.6,11,0.00,CLR,SCT,0.00,WeatherDisplay:10.37,2013-05-01 17:07:00,
2013-05-01 10:12:00,74.9,16.8,29.90,North,352,4.7,8.1,11,0.00,CLR,SCT,0.00,WeatherDisplay:10.37,2013-05-01 17:12:00,
2013-05-01 10:17:00,74.6,16.6,29.90,North,351,7.7,11.5,11,0.00,CLR,SCT,0.00,WeatherDisplay:10.37,2013-05-01 17:17:00,
2013-05-01 10:22:00,73.9,16.0,29.91,NNE,29,5.8,6.9,11,0.00,CLR,SCT,0.00,WeatherDisplay:10.37,2013-05-01 17:22:00,
2013-05-01 10:27:00,73.7,15.9,29.91,NE,49,1.5,4.6,11,0.00,CLR,SCT,0.00,WeatherDisplay:10.37,2013-05-01 17:27:00,
2013-05-01 10:32:00,74.2,16.3,29.91,NE,40,2.2,3.5,11,0.00,CLR,SCT,0.00,WeatherDisplay:10.37,2013-05-01 17:32:00,
2013-05-01 10:37:00,74.6,16.6,29.91,SW,225,3.2,4.6,11,0.00,CLR,SCT,0.00,WeatherDisplay:10.37,2013-05-01 17:37:00,
2013-05-01 10:42:00,74.9,16.8,29.90,West,281,5.5,6.9,11,0.00,CLR,SCT,0.00,WeatherDisplay:10.37,2013-05-01 17:42:00,
2013-05-01 10:47:00,75.4,15.0,29.90,West,266,2.7,4.0,10,0.00,CLR,SCT,0.00,WeatherDisplay:10.37,2013-05-01 17:47:00,
2013-05-01 10:52:00,76.0,17.6,29.90,NW,308,2.3,5.8,11,0.00,CLR,SCT,0.00,WeatherDisplay:10.37,2013-05-01 17:52:00,
2013-05-01 10:57:00,76.0,17.6,29.91,North,353,4.6,10.4,11,0.00,CLR,SCT,0.00,WeatherDisplay:10.37,2013-05-01 17:57:00,
2013-05-01 11:02:00,75.8,15.3,29.91,NNE,16,4.0,4.6,10,0.00,CLR,SCT,0.00,WeatherDisplay:10.37,2013-05-01 18:02:00,
2013-05-01 11:07:00,75.6,17.3,29.91,North,2,3.8,6.9,11,0.00,CLR,SCT,0.00,WeatherDisplay:10.37,2013-05-01 18:07:00,
2013-05-01 11:12:00,75.6,17.3,29.91,North,2,7.5,13.8,11,0.00,CLR,SCT,0.00,WeatherDisplay:10.37,2013-05-01 18:12:00,
2013-05-01 11:17:00,75.4,17.2,29.91,North,2,4.0,6.9,11,0.00,CLR,SCT,0.00,WeatherDisplay:10.37,2013-05-01 18:17:00,
2013-05-01 11:22:00,76.0,17.6,29.90,NNW,331,3.1,5.8,11,0.00,CLR,SCT,0.00,WeatherDisplay:10.37,2013-05-01 18:22:00,
2013-05-01 11:27:00,76.7,18.2,29.90,WSW,254,2.9,3.5,11,0.00,CLR,SCT,0.00,WeatherDisplay:10.37,2013-05-01 18:27:00,
2013-05-01 11:32:00,77.2,16.4,29.90,SSE,153,4.9,5.8,10,0.00,CLR,SCT,0.00,WeatherDisplay:10.37,2013-05-01 18:32:00,
2013-05-01 11:37:00,78.3,17.2,29.90,North,2,4.0,6.9,10,0.00,CLR,SCT,0.00,WeatherDisplay:10.37,2013-05-01 18:37:00,
2013-05-01 11:42:00,78.3,17.2,29.90,NNE,13,7.1,11.5,10,0.00,CLR,SCT,0.00,WeatherDisplay:10.37,2013-05-01 18:42:00,
2013-05-01 11:47:00,77.4,16.5,29.90,NE,51,3.2,4.6,10,0.00,CLR,SCT,0.00,WeatherDisplay:10.37,2013-05-01 18:47:00,
2013-05-01 11:52:00,77.9,16.9,29.90,ENE,71,4.9,8.0,10,0.00,CLR,SCT,0.00,WeatherDisplay:10.37,2013-05-01 18:52:00,
2013-05-01 11:57:00,78.5,17.4,29.90,NNE,12,3.5,8.0,10,0.00,CLR,SCT,0.00,WeatherDisplay:10.37,2013-05-01 18:57:00,
2013-05-01 12:02:00,77.9,16.9,29.90,WNW,294,5.7,8.1,10,0.00,CLR,SCT,0.00,WeatherDisplay:10.37,2013-05-01 19:02:00,
2013-05-01 12:07:00,78.3,17.2,29.90,North,2,3.3,5.8,10,0.00,CLR,SCT,0.00,WeatherDisplay:10.37,2013-05-01 19:07:00,
2013-05-01 12:12:00,78.3,17.2,29.90,North,11,6.9,9.2,10,0.00,CLR,SCT,0.00,WeatherDisplay:10.37,2013-05-01 19:12:00,
2013-05-01 12:17:00,78.3,17.2,29.90,North,353,2.1,3.5,10,0.00,CLR,SCT,0.00,WeatherDisplay:10.37,2013-05-01 19:17:00,
2013-05-01 12:22:00,78.5,17.4,29.90,NNE,12,8.2,11.5,10,0.00,CLR,SCT,0.00,WeatherDisplay:10.37,2013-05-01 19:22:00,
2013-05-01 12:27:00,79.4,15.6,29.90,North,11,3.8,5.8,9,0.00,CLR,SCT,0.00,WeatherDisplay:10.37,2013-05-01 19:27:00,
2013-05-01 12:32:00,79.2,17.9,29.90,NE,53,5.8,6.9,10,0.00,CLR,SCT,0.00,WeatherDisplay:10.37,2013-05-01 19:32:00,
2013-05-01 12:37:00,78.8,17.6,29.90,WSW,254,1.5,6.0,10,0.00,CLR,SCT,0.00,WeatherDisplay:10.37,2013-05-01 19:37:00,
2013-05-01 12:42:00,79.6,18.2,29.89,North,11,6.1,12.0,10,0.00,CLR,SCT,0.00,WeatherDisplay:10.37,2013-05-01 19:42:00,
2013-05-01 12:47:00,79.4,18.0,29.89,North,349,1.4,5.8,10,0.00,CLR,SCT,0.00,WeatherDisplay:10.37,2013-05-01 19:47:00,
2013-05-01 12:52:00,79.6,18.2,29.89,NE,56,6.3,9.2,10,0.00,CLR,SCT,0.00,WeatherDisplay:10.37,2013-05-01 19:52:00,
2013-05-01 12:57:00,79.8,18.3,29.89,North,352,6.1,9.2,10,0.00,CLR,SCT,0.00,WeatherDisplay:10.37,2013-05-01 19:57:00,
2013-05-01 13:02:00,79.6,18.2,29.89,North,353,4.3,6.9,10,0.00,CLR,SCT,0.00,WeatherDisplay:10.37,2013-05-01 20:02:00,
2013-05-01 13:07:00,79.9,16.0,29.89,North,353,1.6,3.5,9,0.00,CLR,SCT,0.00,WeatherDisplay:10.37,2013-05-01 20:07:00,
2013-05-01 13:13:00,81.1,16.9,29.89,West,277,4.0,6.9,9,0.00,CLR,SCT,0.00,WeatherDisplay:10.37,2013-05-01 20:13:00,
2013-05-01 13:18:00,81.2,17.0,29.89,SW,234,5.9,6.9,9,0.00,CLR,SCT,0.00,WeatherDisplay:10.37,2013-05-01 20:18:00,
2013-05-01 13:23:00,81.1,16.9,29.89,NNE,17,6.0,11.5,9,0.00,CLR,SCT,0.00,WeatherDisplay:10.37,2013-05-01 20:23:00,
2013-05-01 13:28:00,80.5,16.4,29.89,WSW,248,1.8,4.6,9,0.00,CLR,SCT,0.00,WeatherDisplay:10.37,2013-05-01 20:28:00,
2013-05-01 13:33:00,81.1,16.9,29.89,East,82,5.2,8.1,9,0.00,CLR,SCT,0.00,WeatherDisplay:10.37,2013-05-01 20:33:00,
2013-05-01 13:38:00,81.1,16.9,29.89,ENE,75,6.2,6.9,9,0.00,CLR,SCT,0.00,WeatherDisplay:10.37,2013-05-01 20:38:00,
2013-05-01 13:43:00,80.9,16.7,29.89,East,79,3.9,9.2,9,0.00,CLR,SCT,0.00,WeatherDisplay:10.37,2013-05-01 20:43:00,
2013-05-01 13:48:00,81.6,17.3,29.89,North,2,6.9,10.4,9,0.00,CLR,SCT,0.00,WeatherDisplay:10.37,2013-05-01 20:48:00,
2013-05-01 13:53:00,81.8,17.4,29.89,NE,38,4.7,5.8,9,0.00,CLR,SCT,0.00,WeatherDisplay:10.37,2013-05-01 20:53:00,
2013-05-01 13:58:00,81.6,17.3,29.89,NE,44,2.6,6.0,9,0.00,CLR,SCT,0.00,WeatherDisplay:10.37,2013-05-01 20:58:00,
2013-05-01 14:03:00,81.4,14.4,29.88,East,94,6.9,10.4,8,0.00,CLR,SCT,0.00,WeatherDisplay:10.37,2013-05-01 21:03:00,
2013-05-01 14:08:00,81.8,14.7,29.88,NW,313,10.7,19.6,8,0.00,CLR,SCT,0.00,WeatherDisplay:10.37,2013-05-01 21:08:00,
2013-05-01 14:13:00,82.4,15.1,29.88,WNW,293,7.0,11.5,8,0.00,CLR,SCT,0.00,WeatherDisplay:10.37,2013-05-01 21:13:00,
2013-05-01 14:18:00,82.4,15.1,29.88,NNW,340,9.2,11.5,8,0.00,CLR,SCT,0.00,WeatherDisplay:10.37,2013-05-01 21:18:00,
2013-05-01 14:23:00,81.8,14.7,29.88,NNW,347,7.0,10.4,8,0.00,CLR,SCT,0.00,WeatherDisplay:10.37,2013-05-01 21:23:00,
2013-05-01 14:28:00,81.6,14.5,29.88,NW,311,3.3,6.9,8,0.00,CLR,SCT,0.00,WeatherDisplay:10.37,2013-05-01 21:28:00,
2013-05-01 14:33:00,81.8,14.7,29.88,NW,314,8.7,12.7,8,0.00,CLR,SCT,0.00,WeatherDisplay:10.37,2013-05-01 21:33:00,
2013-05-01 14:38:00,81.8,14.7,29.88,North,11,8.1,11.5,8,0.00,CLR,SCT,0.00,WeatherDisplay:10.37,2013-05-01 21:38:00,
2013-05-01 14:43:00,82.2,12.0,29.88,NNW,338,7.4,13.8,7,0.00,CLR,SCT,0.00,WeatherDisplay:10.37,2013-05-01 21:43:00,
2013-05-01 14:48:00,82.6,12.2,29.88,West,267,5.6,9.0,7,0.00,CLR,SCT,0.00,WeatherDisplay:10.37,2013-05-01 21:48:00,
2013-05-01 14:53:00,83.0,12.5,29.87,WNW,300,5.7,12.7,7,0.00,CLR,SCT,0.00,WeatherDisplay:10.37,2013-05-01 21:53:00,
2013-05-01 14:58:00,83.0,12.5,29.87,WNW,283,10.1,13.0,7,0.00,CLR,SCT,0.00,WeatherDisplay:10.37,2013-05-01 21:58:00,
2013-05-01 15:03:00,82.6,12.2,29.88,West,269,10.4,11.5,7,0.00,CLR,SCT,0.00,WeatherDisplay:10.37,2013-05-01 22:03:00,
2013-05-01 15:08:00,82.6,12.2,29.87,WNW,296,4.6,8.1,7,0.00,CLR,SCT,0.00,WeatherDisplay:10.37,2013-05-01 22:08:00,
2013-05-01 15:13:00,82.6,15.3,29.87,WNW,283,12.0,12.7,8,0.00,CLR,SCT,0.00,WeatherDisplay:10.37,2013-05-01 22:13:00,
2013-05-01 15:18:00,82.6,15.3,29.87,West,273,9.3,11.5,8,0.00,CLR,SCT,0.00,WeatherDisplay:10.37,2013-05-01 22:18:00,
2013-05-01 15:23:00,82.6,15.3,29.87,WNW,300,9.0,11.5,8,0.00,CLR,SCT,0.00,WeatherDisplay:10.37,2013-05-01 22:23:00,
2013-05-01 15:28:00,82.4,15.1,29.87,NW,314,3.8,5.8,8,0.00,CLR,SCT,0.00,WeatherDisplay:10.37,2013-05-01 22:28:00,
2013-05-01 15:33:00,82.4,15.1,29.87,North,2,3.2,5.8,8,0.00,CLR,SCT,0.00,WeatherDisplay:10.37,2013-05-01 22:33:00,
2013-05-01 15:38:00,82.4,15.1,29.87,WNW,287,5.8,11.0,8,0.00,CLR,SCT,0.00,WeatherDisplay:10.37,2013-05-01 22:38:00,
2013-05-01 15:43:00,82.6,15.3,29.87,WNW,302,9.1,11.5,8,0.00,CLR,SCT,0.00,WeatherDisplay:10.37,2013-05-01 22:43:00,
2013-05-01 15:48:00,82.6,15.3,29.87,NW,318,7.7,12.7,8,0.00,CLR,SCT,0.00,WeatherDisplay:10.37,2013-05-01 22:48:00,
2013-05-01 15:53:00,82.6,15.3,29.87,WNW,288,7.0,7.0,8,0.00,CLR,SCT,0.00,WeatherDisplay:10.37,2013-05-01 22:53:00,
2013-05-01 15:58:00,82.6,15.3,29.87,West,273,10.3,11.5,8,0.00,CLR,SCT,0.00,WeatherDisplay:10.37,2013-05-01 22:58:00,
2013-05-01 16:03:00,82.6,15.3,29.88,WNW,292,8.6,11.5,8,0.00,CLR,SCT,0.00,WeatherDisplay:10.37,2013-05-01 23:03:00,
2013-05-01 16:08:00,82.2,15.0,29.88,West,260,7.8,11.5,8,0.00,CLR,SCT,0.00,WeatherDisplay:10.37,2013-05-01 23:08:00,
2013-05-01 16:13:00,82.0,14.8,29.88,West,265,5.5,9.2,8,0.00,CLR,SCT,0.00,WeatherDisplay:10.37,2013-05-01 23:13:00,
2013-05-01 16:18:00,82.2,15.0,29.88,WNW,283,7.3,10.4,8,0.00,CLR,SCT,0.00,WeatherDisplay:10.37,2013-05-01 23:18:00,
2013-05-01 16:23:00,82.2,15.0,29.88,NW,319,7.5,11.5,8,0.00,CLR,SCT,0.00,WeatherDisplay:10.37,2013-05-01 23:23:00,
2013-05-01 16:28:00,82.0,14.8,29.88,NW,308,8.1,13.8,8,0.00,CLR,SCT,0.00,WeatherDisplay:10.37,2013-05-01 23:28:00,
2013-05-01 16:33:00,81.8,14.7,29.88,WSW,256,10.5,12.0,8,0.00,CLR,SCT,0.00,WeatherDisplay:10.37,2013-05-01 23:33:00,
2013-05-01 16:38:00,81.8,17.4,29.88,NW,305,8.2,11.5,9,0.00,CLR,SCT,0.00,WeatherDisplay:10.37,2013-05-01 23:38:00,
2013-05-01 16:43:00,81.8,14.7,29.88,West,274,10.1,13.8,8,0.00,CLR,SCT,0.00,WeatherDisplay:10.37,2013-05-01 23:43:00,
2013-05-01 16:48:00,81.6,14.5,29.89,West,265,8.3,11.5,8,0.00,CLR,SCT,0.00,WeatherDisplay:10.37,2013-05-01 23:48:00,
2013-05-01 16:53:00,81.4,14.4,29.89,WNW,290,9.9,12.7,8,0.00,CLR,SCT,0.00,WeatherDisplay:10.37,2013-05-01 23:53:00,
2013-05-01 16:58:00,81.2,14.2,29.88,NW,311,9.3,12.7,8,0.00,CLR,SCT,0.00,WeatherDisplay:10.37,2013-05-01 23:58:00,
2013-05-01 17:03:00,81.1,14.2,29.88,West,271,9.7,12.0,8,0.00,CLR,SCT,0.00,WeatherDisplay:10.37,2013-05-02 00:03:00,
2013-05-01 17:08:00,81.1,14.2,29.89,West,279,8.6,12.7,8,0.00,CLR,SCT,0.00,WeatherDisplay:10.37,2013-05-02 00:08:00,
2013-05-01 17:13:00,80.9,14.0,29.89,West,259,8.4,10.4,8,0.00,CLR,SCT,0.00,WeatherDisplay:10.37,2013-05-02 00:13:00,
2013-05-01 17:18:00,80.7,13.9,29.89,SW,230,6.7,10.4,8,0.00,CLR,SCT,0.00,WeatherDisplay:10.37,2013-05-02 00:18:00,
2013-05-01 17:23:00,80.7,13.9,29.89,WNW,289,9.9,13.0,8,0.00,CLR,SCT,0.00,WeatherDisplay:10.37,2013-05-02 00:23:00,
2013-05-01 17:28:00,80.3,13.6,29.89,WNW,292,11.9,16.0,8,0.00,CLR,SCT,0.00,WeatherDisplay:10.37,2013-05-02 00:28:00,
2013-05-01 17:33:00,79.9,13.3,29.89,NW,324,10.0,15.0,8,0.00,CLR,SCT,0.00,WeatherDisplay:10.37,2013-05-02 00:33:00,
2013-05-01 17:38:00,79.8,13.2,29.89,West,277,9.8,15.0,8,0.00,CLR,SCT,0.00,WeatherDisplay:10.37,2013-05-02 00:38:00,
2013-05-01 17:43:00,79.6,13.1,29.89,West,261,10.0,13.8,8,0.00,CLR,SCT,0.00,WeatherDisplay:10.37,2013-05-02 00:43:00,
2013-05-01 17:48:00,79.4,12.9,29.89,WSW,253,8.3,10.4,8,0.00,CLR,SCT,0.00,WeatherDisplay:10.37,2013-05-02 00:48:00,
2013-05-01 17:53:00,79.4,12.9,29.89,WNW,298,8.4,10.4,8,0.00,CLR,SCT,0.00,WeatherDisplay:10.37,2013-05-02 00:53:00,
2013-05-01 17:58:00,79.2,12.8,29.89,WNW,290,8.2,12.7,8,0.00,CLR,SCT,0.00,WeatherDisplay:10.37,2013-05-02 00:58:00,
2013-05-01 18:03:00,79.0,12.6,29.90,West,267,5.1,9.2,8,0.00,CLR,SCT,0.00,WeatherDisplay:10.37,2013-05-02 01:03:00,
2013-05-01 18:08:00,78.8,15.1,29.90,WNW,289,7.1,11.5,9,0.00,CLR,SCT,0.00,WeatherDisplay:10.37,2013-05-02 01:08:00,
2013-05-01 18:13:00,78.6,15.0,29.90,WNW,290,8.2,12.0,9,0.00,CLR,SCT,0.00,WeatherDisplay:10.37,2013-05-02 01:13:00,
2013-05-01 18:18:00,78.5,14.9,29.90,WNW,298,6.5,11.5,9,0.00,CLR,SCT,0.00,WeatherDisplay:10.37,2013-05-02 01:18:00,
2013-05-01 18:23:00,78.3,17.2,29.90,West,275,4.9,7.0,10,0.00,CLR,SCT,0.00,WeatherDisplay:10.37,2013-05-02 01:23:00,
2013-05-01 18:28:00,77.9,16.9,29.90,WSW,258,7.2,11.5,10,0.00,CLR,SCT,0.00,WeatherDisplay:10.37,2013-05-02 01:28:00,
2013-05-01 18:33:00,77.6,16.7,29.90,West,259,6.2,8.1,10,0.00,CLR,SCT,0.00,WeatherDisplay:10.37,2013-05-02 01:33:00,
2013-05-01 18:38:00,77.2,16.4,29.91,West,271,7.4,8.1,10,0.00,CLR,SCT,0.00,WeatherDisplay:10.37,2013-05-02 01:38:00,
2013-05-01 18:43:00,76.7,16.0,29.91,WSW,255,8.5,9.2,10,0.00,CLR,SCT,0.00,WeatherDisplay:10.37,2013-05-02 01:43:00,
2013-05-01 18:48:00,76.1,15.5,29.91,West,261,7.3,9.2,10,0.00,CLR,SCT,0.00,WeatherDisplay:10.37,2013-05-02 01:48:00,
2013-05-01 18:53:00,75.8,15.3,29.91,SW,223,7.3,9.2,10,0.00,CLR,SCT,0.00,WeatherDisplay:10.37,2013-05-02 01:53:00,
2013-05-01 18:58:00,75.3,14.9,29.92,South,180,7.2,10.4,10,0.00,CLR,SCT,0.00,WeatherDisplay:10.37,2013-05-02 01:58:00,
2013-05-01 19:03:00,74.7,16.6,29.92,South,181,7.8,9.0,11,0.00,CLR,SCT,0.00,WeatherDisplay:10.37,2013-05-02 02:03:00,
2013-05-01 19:08:00,74.4,16.4,29.92,South,182,6.2,8.1,11,0.00,CLR,SCT,0.00,WeatherDisplay:10.37,2013-05-02 02:08:00,
2013-05-01 19:13:00,73.9,16.0,29.92,South,182,6.1,7.0,11,0.00,CLR,SCT,0.00,WeatherDisplay:10.37,2013-05-02 02:13:00,
2013-05-01 19:18:00,73.3,15.6,29.92,South,182,6.8,9.2,11,0.00,CLR,SCT,0.00,WeatherDisplay:10.37,2013-05-02 02:18:00,
2013-05-01 19:23:00,72.8,15.2,29.92,South,182,6.7,8.1,11,0.00,CLR,SCT,0.00,WeatherDisplay:10.37,2013-05-02 02:23:00,
2013-05-01 19:28:00,72.5,14.9,29.92,South,182,6.4,8.1,11,0.00,CLR,SCT,0.00,WeatherDisplay:10.37,2013-05-02 02:28:00,
2013-05-01 19:33:00,72.1,14.6,29.93,South,182,5.3,5.8,11,0.00,CLR,SCT,0.00,WeatherDisplay:10.37,2013-05-02 02:33:00,
2013-05-01 19:38:00,71.6,14.2,29.93,South,182,5.4,6.9,11,0.00,CLR,SCT,0.00,WeatherDisplay:10.37,2013-05-02 02:38:00,
2013-05-01 19:43:00,71.5,14.2,29.93,South,182,5.9,6.9,11,0.00,CLR,SCT,0.00,WeatherDisplay:10.37,2013-05-02 02:43:00,
2013-05-01 19:48:00,71.1,13.9,29.93,South,182,5.4,6.9,11,0.00,CLR,SCT,0.00,WeatherDisplay:10.37,2013-05-02 02:48:00,
2013-05-01 19:53:00,70.9,13.7,29.93,South,182,5.6,8.1,11,0.00,CLR,SCT,0.00,WeatherDisplay:10.37,2013-05-02 02:53:00,
2013-05-01 19:58:00,70.8,13.6,29.94,South,182,6.0,9.2,11,0.00,CLR,SCT,0.00,WeatherDisplay:10.37,2013-05-02 02:58:00,
2013-05-01 20:03:00,70.8,13.6,29.94,South,182,6.5,9.2,11,0.00,CLR,SCT,0.00,WeatherDisplay:10.37,2013-05-02 03:03:00,
2013-05-01 20:08:00,70.6,13.5,29.94,South,182,6.1,8.1,11,0.00,CLR,SCT,0.00,WeatherDisplay:10.37,2013-05-02 03:08:00,
2013-05-01 20:13:00,70.6,13.5,29.94,South,182,5.5,6.9,11,0.00,CLR,SCT,0.00,WeatherDisplay:10.37,2013-05-02 03:13:00,
2013-05-01 20:18:00,70.4,13.3,29.95,SSW,200,6.2,8.1,11,0.00,CLR,SCT,0.00,WeatherDisplay:10.37,2013-05-02 03:18:00,
2013-05-01 20:23:00,70.3,13.2,29.95,SSW,202,6.8,8.1,11,0.00,CLR,SCT,0.00,WeatherDisplay:10.37,2013-05-02 03:23:00,
2013-05-01 20:28:00,70.4,15.3,29.95,NW,323,5.9,8.1,12,0.00,CLR,SCT,0.00,WeatherDisplay:10.37,2013-05-02 03:28:00,
2013-05-01 20:33:00,70.3,15.2,29.95,WNW,298,4.1,5.8,12,0.00,CLR,SCT,0.00,WeatherDisplay:10.37,2013-05-02 03:33:00,
2013-05-01 20:38:00,69.9,14.9,29.95,WNW,298,4.8,5.8,12,0.00,CLR,SCT,0.00,WeatherDisplay:10.37,2013-05-02 03:38:00,
2013-05-01 20:43:00,69.6,14.7,29.95,WNW,294,3.6,4.6,12,0.00,CLR,SCT,0.00,WeatherDisplay:10.37,2013-05-02 03:43:00,
2013-05-01 20:48:00,69.4,14.5,29.96,WNW,292,3.1,3.5,12,0.00,CLR,SCT,0.00,WeatherDisplay:10.37,2013-05-02 03:48:00,
2013-05-01 20:53:00,69.3,14.4,29.96,WNW,285,3.4,4.6,12,0.00,CLR,SCT,0.00,WeatherDisplay:10.37,2013-05-02 03:53:00,
2013-05-01 20:58:00,68.9,14.1,29.96,West,273,4.6,4.6,12,0.00,CLR,SCT,0.00,WeatherDisplay:10.37,2013-05-02 03:58:00,
2013-05-01 21:01:00,68.6,13.9,29.96,West,269,4.8,6.0,12,0.00,CLR,SCT,0.00,WeatherDisplay:10.37,2013-05-02 04:01:00,
2013-05-01 21:02:00,68.4,13.7,29.96,West,269,4.4,5.8,12,0.00,CLR,SCT,0.00,WeatherDisplay:10.37,2013-05-02 04:02:00,
2013-05-01 21:05:00,68.3,15.5,29.96,West,277,3.9,5.8,13,0.00,CLR,SCT,0.00,WeatherDisplay:10.37,2013-05-02 04:05:00,
2013-05-01 21:06:00,68.1,15.3,29.96,West,277,4.0,5.0,13,0.00,CLR,SCT,0.00,WeatherDisplay:10.37,2013-05-02 04:06:00,
2013-05-01 21:11:00,67.8,15.1,29.97,West,276,5.4,8.1,13,0.00,CLR,SCT,0.00,WeatherDisplay:10.37,2013-05-02 04:11:00,
2013-05-01 21:16:00,67.8,15.1,29.97,West,280,3.7,5.8,13,0.00,CLR,SCT,0.00,WeatherDisplay:10.37,2013-05-02 04:16:00,
2013-05-01 21:21:00,67.6,14.9,29.98,WNW,289,3.3,5.8,13,0.00,CLR,SCT,0.00,WeatherDisplay:10.37,2013-05-02 04:21:00,
2013-05-01 21:26:00,67.3,14.7,29.98,WNW,289,4.0,5.8,13,0.00,CLR,SCT,0.00,WeatherDisplay:10.37,2013-05-02 04:26:00,
2013-05-01 21:31:00,66.9,12.6,29.98,WNW,295,4.7,5.8,12,0.00,CLR,SCT,0.00,WeatherDisplay:10.37,2013-05-02 04:31:00,
2013-05-01 21:36:00,66.9,12.6,29.98,West,278,5.2,6.0,12,0.00,CLR,SCT,0.00,WeatherDisplay:10.37,2013-05-02 04:36:00,
2013-05-01 21:41:00,66.9,12.6,29.98,WNW,292,3.5,4.0,12,0.00,CLR,SCT,0.00,WeatherDisplay:10.37,2013-05-02 04:41:00,
2013-05-01 21:46:00,66.8,14.3,29.98,WNW,288,3.8,4.6,13,0.00,CLR,SCT,0.00,WeatherDisplay:10.37,2013-05-02 04:46:00,
2013-05-01 21:51:00,66.8,14.3,29.98,WNW,285,3.9,4.6,13,0.00,CLR,SCT,0.00,WeatherDisplay:10.37,2013-05-02 04:51:00,
2013-05-01 21:56:00,66.9,14.4,29.99,WNW,288,4.0,6.9,13,0.00,CLR,SCT,0.00,WeatherDisplay:10.37,2013-05-02 04:56:00,
2013-05-01 22:01:00,66.9,14.4,29.99,WNW,284,2.5,3.5,13,0.00,CLR,SCT,0.00,WeatherDisplay:10.37,2013-05-02 05:01:00,
2013-05-01 22:06:00,66.8,14.3,29.99,WNW,288,4.4,5.0,13,0.00,CLR,SCT,0.00,WeatherDisplay:10.37,2013-05-02 05:06:00,
2013-05-01 22:11:00,66.6,14.2,29.99,West,281,3.8,5.0,13,0.00,CLR,SCT,0.00,WeatherDisplay:10.37,2013-05-02 05:11:00,
2013-05-01 22:16:00,66.4,14.0,29.99,West,277,4.0,6.0,13,0.00,CLR,SCT,0.00,WeatherDisplay:10.37,2013-05-02 05:16:00,
2013-05-01 22:21:00,66.1,13.8,29.99,West,272,4.4,5.0,13,0.00,CLR,SCT,0.00,WeatherDisplay:10.37,2013-05-02 05:21:00,
2013-05-01 22:26:00,65.8,13.5,29.99,West,275,5.3,6.9,13,0.00,CLR,SCT,0.00,WeatherDisplay:10.37,2013-05-02 05:26:00,
2013-05-01 22:31:00,65.6,15.1,29.99,West,275,4.7,5.8,14,0.00,CLR,SCT,0.00,WeatherDisplay:10.37,2013-05-02 05:31:00,
2013-05-01 22:36:00,65.3,14.8,29.99,West,271,4.4,5.8,14,0.00,CLR,SCT,0.00,WeatherDisplay:10.37,2013-05-02 05:36:00,
2013-05-01 22:41:00,65.3,14.8,30.00,West,271,4.8,4.8,14,0.00,CLR,SCT,0.00,WeatherDisplay:10.37,2013-05-02 05:41:00,
2013-05-01 22:46:00,65.2,14.7,29.99,West,271,3.3,4.6,14,0.00,CLR,SCT,0.00,WeatherDisplay:10.37,2013-05-02 05:46:00,
2013-05-01 22:51:00,65.2,14.7,29.99,West,274,3.7,4.6,14,0.00,CLR,SCT,0.00,WeatherDisplay:10.37,2013-05-02 05:51:00,
2013-05-01 22:56:00,65.0,14.6,30.00,West,272,4.1,4.6,14,0.00,CLR,SCT,0.00,WeatherDisplay:10.37,2013-05-02 05:56:00,
2013-05-01 23:01:00,64.8,14.4,30.00,West,267,5.7,6.9,14,0.00,CLR,SCT,0.00,WeatherDisplay:10.37,2013-05-02 06:01:00,
2013-05-01 23:06:00,64.8,14.4,30.00,West,274,4.5,4.6,14,0.00,CLR,SCT,0.00,WeatherDisplay:10.37,2013-05-02 06:06:00,
2013-05-01 23:11:00,64.8,16.0,30.00,West,269,4.3,5.8,15,0.00,CLR,SCT,0.00,WeatherDisplay:10.37,2013-05-02 06:11:00,
2013-05-01 23:16:00,64.7,15.9,30.00,West,269,4.4,5.8,15,0.00,CLR,SCT,0.00,WeatherDisplay:10.37,2013-05-02 06:16:00,
2013-05-01 23:21:00,64.5,15.8,30.00,West,269,3.4,4.6,15,0.00,CLR,SCT,0.00,WeatherDisplay:10.37,2013-05-02 06:21:00,
2013-05-01 23:26:00,64.5,15.8,30.00,West,270,2.6,4.6,15,0.00,CLR,SCT,0.00,WeatherDisplay:10.37,2013-05-02 06:26:00,
2013-05-01 23:31:00,64.2,15.5,30.00,West,270,2.1,3.5,15,0.00,CLR,SCT,0.00,WeatherDisplay:10.37,2013-05-02 06:31:00,
2013-05-01 23:36:00,64.0,15.4,30.00,West,270,2.3,3.5,15,0.00,CLR,SCT,0.00,WeatherDisplay:10.37,2013-05-02 06:36:00,
2013-05-01 23:41:00,63.7,16.6,30.00,West,270,2.2,2.2,16,0.00,CLR,SCT,0.00,WeatherDisplay:10.37,2013-05-02 06:41:00,
2013-05-01 23:46:00,63.2,16.2,30.00,West,270,3.2,4.6,16,0.00,CLR,SCT,0.00,WeatherDisplay:10.37,2013-05-02 06:46:00,
2013-05-01 23:51:00,62.9,16.0,30.00,West,270,2.4,3.5,16,0.00,CLR,SCT,0.00,WeatherDisplay:10.37,2013-05-02 06:51:00,
2013-05-01 23:56:00,62.7,15.8,30.00,West,274,2.6,3.5,16,0.00,CLR,SCT,0.00,WeatherDisplay:10.37,2013-05-02 06:56:00,